Time;durP1;ratioP1;P1;durP2;ratioP2;P2;SDS_P1;SDS_P2;PMS_P1;PMS_P2;Temp;Humidity;BMP_temperature;BMP_pressure;BME280_temperature;BME280_humidity;BME280_pressure;Samples;Min_cycle;Max_cycle;Signal;HPM_P1;HPM_P2
2023/11/13 00:02:01;;;;;;;12.10;7.90;;;7.50;93.20;;;;;;790572;182;26489;-85
2023/11/13 00:04:29;;;;;;;11.30;8.17;;;7.60;93.10;;;;;;790791;177;26462;-85
2023/11/13 00:06:56;;;;;;;15.73;8.60;;;7.50;93.40;;;;;;790620;177;26453;-85
2023/11/13 00:09:32;;;;;;;13.47;7.87;;;7.50;92.90;;;;;;790878;181;26486;-85
2023/11/13 00:11:58;;;;;;;11.93;7.83;;;7.60;92.90;;;;;;790735;182;26512;-85
2023/11/13 00:14:25;;;;;;;15.17;7.50;;;7.60;92.90;;;;;;791153;177;26590;-85
2023/11/13 00:16:51;;;;;;;11.17;7.73;;;7.50;92.80;;;;;;793348;177;27024;-85
2023/11/13 00:19:18;;;;;;;15.23;7.37;;;7.50;93.10;;;;;;792720;177;26520;-85
2023/11/13 00:21:45;;;;;;;11.97;6.90;;;7.50;92.70;;;;;;792268;181;27007;-85
2023/11/13 00:24:12;;;;;;;14.00;7.73;;;7.40;92.60;;;;;;792160;178;26449;-85
2023/11/13 00:26:38;;;;;;;10.00;6.43;;;7.50;92.80;;;;;;791654;181;27008;-84
2023/11/13 00:29:05;;;;;;;8.63;6.83;;;7.40;92.70;;;;;;791845;181;26470;-85
2023/11/13 00:31:31;;;;;;;16.47;7.20;;;7.50;92.90;;;;;;791772;181;28055;-87
2023/11/13 00:33:57;;;;;;;13.33;7.03;;;7.60;92.70;;;;;;791466;181;26492;-87
2023/11/13 00:36:24;;;;;;;10.57;7.00;;;7.70;92.90;;;;;;791309;181;27041;-88
2023/11/13 00:38:51;;;;;;;8.10;6.03;;;7.70;92.20;;;;;;791293;182;26539;-88
2023/11/13 00:41:17;;;;;;;13.27;7.10;;;7.70;92.40;;;;;;791324;177;26523;-85
2023/11/13 00:43:44;;;;;;;9.70;6.27;;;7.60;92.20;;;;;;791354;182;26546;-87
2023/11/13 00:46:10;;;;;;;7.37;5.90;;;7.70;92.30;;;;;;791381;182;26499;-87
2023/11/13 00:48:40;;;;;;;8.23;6.03;;;7.70;92.10;;;;;;791394;182;26479;-87
2023/11/13 00:51:04;;;;;;;9.90;6.57;;;7.60;91.90;;;;;;791043;181;26498;-87
2023/11/13 00:53:36;;;;;;;10.40;6.53;;;7.60;92.30;;;;;;791111;182;26444;-87
2023/11/13 00:55:58;;;;;;;10.93;5.97;;;7.70;92.00;;;;;;790328;182;26463;-87
2023/11/13 00:58:26;;;;;;;10.17;6.27;;;7.60;92.10;;;;;;791100;182;26445;-87
2023/11/13 01:00:51;;;;;;;8.47;5.53;;;7.60;92.00;;;;;;790758;182;26477;-86
2023/11/13 01:03:17;;;;;;;9.83;5.87;;;7.60;91.90;;;;;;791023;182;26477;-86
2023/11/13 01:05:44;;;;;;;9.87;5.90;;;7.60;91.90;;;;;;790896;182;26470;-85
2023/11/13 01:08:10;;;;;;;8.67;5.63;;;7.60;92.10;;;;;;790843;182;26979;-85
2023/11/13 01:10:37;;;;;;;8.50;5.90;;;7.60;91.90;;;;;;790761;181;26477;-85
2023/11/13 01:13:04;;;;;;;13.57;6.83;;;7.60;92.10;;;;;;790790;182;26994;-85
2023/11/13 01:15:32;;;;;;;10.53;5.97;;;7.70;92.10;;;;;;790911;182;27698;-85
2023/11/13 01:17:59;;;;;;;7.97;5.90;;;7.70;91.70;;;;;;791089;182;26448;-85
2023/11/13 01:20:26;;;;;;;7.93;5.87;;;7.70;91.80;;;;;;791887;182;26473;-85
2023/11/13 01:22:52;;;;;;;9.73;6.10;;;7.60;91.70;;;;;;791137;182;26474;-86
2023/11/13 01:25:18;;;;;;;7.83;5.63;;;7.60;91.90;;;;;;790861;182;28817;-85
2023/11/13 01:27:45;;;;;;;7.77;5.47;;;7.70;91.90;;;;;;793121;178;26437;-86
2023/11/13 01:30:12;;;;;;;6.77;6.03;;;7.80;91.80;;;;;;793606;181;26492;-86
2023/11/13 01:32:39;;;;;;;8.50;6.07;;;7.80;91.50;;;;;;793172;181;28051;-86
2023/11/13 01:35:06;;;;;;;12.20;5.97;;;7.80;92.10;;;;;;793148;181;26441;-86
2023/11/13 01:37:32;;;;;;;9.33;6.23;;;7.80;91.40;;;;;;792516;180;26453;-85
2023/11/13 01:39:59;;;;;;;10.57;5.83;;;7.80;91.90;;;;;;792778;181;26465;-85
2023/11/13 01:42:25;;;;;;;7.40;5.57;;;7.80;92.00;;;;;;792920;181;26522;-86
2023/11/13 01:44:52;;;;;;;8.50;5.60;;;7.90;92.00;;;;;;792763;181;26445;-86
2023/11/13 01:47:19;;;;;;;6.77;5.20;;;7.90;92.20;;;;;;792262;181;26441;-86
2023/11/13 01:49:45;;;;;;;7.73;5.57;;;7.90;91.60;;;;;;792225;177;26446;-85
2023/11/13 01:52:13;;;;;;;7.63;5.53;;;7.90;92.10;;;;;;792351;180;26474;-86
2023/11/13 01:54:38;;;;;;;7.93;5.10;;;7.90;92.00;;;;;;792161;181;26445;-86
2023/11/13 01:57:05;;;;;;;11.40;5.90;;;7.90;92.30;;;;;;792203;181;26448;-86
2023/11/13 01:59:32;;;;;;;6.50;5.00;;;7.90;92.20;;;;;;792099;181;26972;-86
2023/11/13 02:01:58;;;;;;;6.57;5.67;;;7.90;91.90;;;;;;792068;181;26479;-86
2023/11/13 02:04:25;;;;;;;8.97;5.13;;;7.90;92.10;;;;;;791746;181;27053;-87
2023/11/13 02:06:51;;;;;;;9.27;5.07;;;8.00;91.60;;;;;;791801;181;26510;-87
2023/11/13 02:09:20;;;;;;;11.27;4.87;;;7.90;91.80;;;;;;791802;180;27031;-86
2023/11/13 02:11:45;;;;;;;5.90;5.03;;;7.90;91.60;;;;;;791591;181;26489;-87
2023/11/13 02:14:11;;;;;;;6.27;4.80;;;8.00;92.20;;;;;;792007;181;26464;-87
2023/11/13 02:16:38;;;;;;;6.60;4.87;;;8.00;92.00;;;;;;791881;180;26503;-86
2023/11/13 02:19:04;;;;;;;9.43;5.13;;;8.00;92.20;;;;;;791900;177;26453;-87
2023/11/13 02:21:31;;;;;;;8.97;5.20;;;8.00;92.30;;;;;;791956;181;26532;-86
2023/11/13 02:23:57;;;;;;;7.87;4.43;;;8.00;92.70;;;;;;791765;181;26462;-87
2023/11/13 02:26:24;;;;;;;8.13;5.67;;;7.90;92.40;;;;;;791769;178;26476;-87
2023/11/13 02:28:51;;;;;;;7.73;5.10;;;7.90;93.10;;;;;;791985;181;26492;-87
2023/11/13 02:31:17;;;;;;;9.53;5.60;;;7.90;93.40;;;;;;792023;177;26510;-87
2023/11/13 02:33:44;;;;;;;10.43;5.03;;;7.90;93.70;;;;;;792056;181;26474;-87
2023/11/13 02:36:10;;;;;;;6.77;5.03;;;7.90;93.30;;;;;;791877;180;26461;-87
2023/11/13 02:38:37;;;;;;;9.23;5.83;;;7.90;93.60;;;;;;793631;179;26460;-87
2023/11/13 02:41:04;;;;;;;8.57;5.60;;;7.90;93.80;;;;;;794028;180;26467;-88
2023/11/13 02:43:30;;;;;;;9.03;5.57;;;7.90;93.90;;;;;;793592;177;27009;-87
2023/11/13 02:45:57;;;;;;;8.10;5.10;;;7.90;93.80;;;;;;793386;181;26756;-88
2023/11/13 02:48:23;;;;;;;10.37;5.20;;;8.00;93.70;;;;;;793080;181;26458;-87
2023/11/13 02:50:50;;;;;;;6.53;5.20;;;8.00;93.50;;;;;;792944;181;26477;-86
2023/11/13 02:53:17;;;;;;;9.50;5.70;;;8.00;93.90;;;;;;792914;181;27030;-87
2023/11/13 02:55:43;;;;;;;8.67;5.73;;;8.00;93.70;;;;;;792926;180;26473;-87
2023/11/13 02:58:10;;;;;;;8.90;5.83;;;8.00;93.70;;;;;;792527;181;26476;-86
2023/11/13 03:00:36;;;;;;;8.83;5.53;;;8.00;93.80;;;;;;792562;181;26502;-87
2023/11/13 03:03:03;;;;;;;8.67;5.40;;;8.10;93.70;;;;;;792465;181;26452;-87
2023/11/13 03:05:30;;;;;;;7.03;5.30;;;8.10;93.60;;;;;;792263;181;26445;-86
2023/11/13 03:07:57;;;;;;;8.43;5.47;;;8.10;93.80;;;;;;792255;181;26453;-87
2023/11/13 03:10:23;;;;;;;9.33;6.20;;;8.00;93.60;;;;;;792166;181;26631;-88
2023/11/13 03:12:50;;;;;;;9.40;6.10;;;8.00;94.10;;;;;;792457;181;26453;-88
2023/11/13 03:15:16;;;;;;;9.23;6.30;;;8.00;93.90;;;;;;791807;181;27008;-87
2023/11/13 03:17:43;;;;;;;8.37;6.07;;;8.00;94.50;;;;;;791812;181;26502;-87
2023/11/13 03:20:09;;;;;;;9.43;6.77;;;7.90;94.40;;;;;;791644;178;27360;-88
2023/11/13 03:22:36;;;;;;;9.50;6.50;;;7.90;94.90;;;;;;791772;178;27008;-87
2023/11/13 03:25:04;;;;;;;11.07;7.40;;;7.90;95.20;;;;;;791921;181;26493;-88
2023/11/13 03:27:29;;;;;;;9.17;6.73;;;8.00;95.50;;;;;;791919;181;26448;-88
2023/11/13 03:29:57;;;;;;;9.97;7.10;;;8.00;95.30;;;;;;792126;181;26512;-89
2023/11/13 03:32:22;;;;;;;11.83;8.20;;;8.00;95.70;;;;;;791256;181;26486;-89
2023/11/13 03:34:49;;;;;;;10.80;7.60;;;8.00;95.90;;;;;;791734;181;26500;-90
2023/11/13 03:37:30;;;;;;;14.47;8.20;;;8.00;95.80;;;;;;791989;180;27003;-90
2023/11/13 03:39:57;;;;;;;10.63;7.43;;;8.00;96.10;;;;;;792861;181;26574;-89
2023/11/13 03:42:24;;;;;;;14.33;8.80;;;8.00;96.20;;;;;;793341;181;26468;-89
2023/11/13 03:44:51;;;;;;;10.83;7.23;;;8.10;96.50;;;;;;791775;177;26465;-90
2023/11/13 03:47:17;;;;;;;12.40;8.23;;;8.10;96.50;;;;;;792211;177;26481;-88
2023/11/13 03:49:44;;;;;;;10.90;7.47;;;8.10;96.60;;;;;;793120;179;27004;-87
2023/11/13 03:52:13;;;;;;;8.90;7.80;;;8.00;96.40;;;;;;794323;181;26449;-87
2023/11/13 03:54:37;;;;;;;9.13;7.50;;;8.10;96.90;;;;;;794258;181;26473;-90
2023/11/13 03:57:04;;;;;;;10.73;7.63;;;8.00;96.80;;;;;;795143;181;26512;-88
2023/11/13 03:59:31;;;;;;;11.03;9.53;;;8.00;96.80;;;;;;793687;177;27015;-89
2023/11/13 04:02:00;;;;;;;11.67;8.83;;;8.00;97.10;;;;;;792504;178;26494;-88
2023/11/13 04:04:23;;;;;;;14.33;9.40;;;8.00;97.20;;;;;;792345;181;26486;-88
2023/11/13 04:06:50;;;;;;;14.60;9.90;;;8.00;97.30;;;;;;792823;181;26478;-89
2023/11/13 04:09:17;;;;;;;15.33;8.90;;;8.00;97.40;;;;;;792223;181;26448;-88
2023/11/13 04:11:43;;;;;;;11.67;9.17;;;8.00;97.40;;;;;;792174;181;27004;-87
2023/11/13 04:14:10;;;;;;;16.37;9.40;;;8.00;97.50;;;;;;792075;181;26461;-87
2023/11/13 04:16:36;;;;;;;13.63;9.07;;;8.10;97.60;;;;;;792077;181;26474;-86
2023/11/13 04:19:03;;;;;;;14.47;9.97;;;8.10;97.60;;;;;;792248;180;26472;-87
2023/11/13 04:21:31;;;;;;;13.43;9.53;;;8.10;97.60;;;;;;792273;178;27008;-86
2023/11/13 04:23:56;;;;;;;13.10;9.03;;;8.10;97.60;;;;;;792222;181;26603;-87
2023/11/13 04:26:23;;;;;;;14.20;8.60;;;8.20;97.90;;;;;;791904;178;26486;-86
2023/11/13 04:28:49;;;;;;;12.07;8.70;;;8.20;97.90;;;;;;791643;181;26513;-89
2023/11/13 04:31:16;;;;;;;12.70;8.97;;;8.20;97.70;;;;;;791721;180;26479;-87
2023/11/13 04:33:43;;;;;;;11.47;8.17;;;8.20;97.70;;;;;;791657;181;26461;-87
2023/11/13 04:36:09;;;;;;;12.60;9.90;;;8.20;97.40;;;;;;791748;181;26637;-87
2023/11/13 04:38:40;;;;;;;14.10;9.20;;;8.20;97.60;;;;;;791735;177;26501;-87
2023/11/13 04:41:03;;;;;;;12.70;9.37;;;8.20;97.60;;;;;;791306;181;26502;-86
2023/11/13 04:43:30;;;;;;;13.00;8.67;;;8.20;97.60;;;;;;791595;177;26473;-86
2023/11/13 04:45:57;;;;;;;12.60;9.13;;;8.20;97.50;;;;;;791690;178;26823;-88
2023/11/13 04:48:23;;;;;;;14.57;8.80;;;8.20;97.60;;;;;;791639;181;26453;-87
2023/11/13 04:50:51;;;;;;;13.53;9.37;;;8.20;97.80;;;;;;791630;181;26488;-86
2023/11/13 04:53:16;;;;;;;12.10;8.40;;;8.20;97.60;;;;;;791657;181;26536;-87
2023/11/13 04:55:43;;;;;;;12.23;9.17;;;8.30;97.70;;;;;;791721;181;26514;-95
2023/11/13 04:58:10;;;;;;;9.63;8.13;;;8.30;97.70;;;;;;791573;181;27056;-88
2023/11/13 05:00:36;;;;;;;13.10;8.30;;;8.30;97.80;;;;;;791835;179;26502;-87
2023/11/13 05:03:03;;;;;;;12.37;8.73;;;8.30;97.70;;;;;;794307;180;27027;-87
2023/11/13 05:05:32;;;;;;;13.67;9.77;;;8.30;97.70;;;;;;793380;180;26484;-87
2023/11/13 05:07:56;;;;;;;10.77;7.63;;;8.30;97.80;;;;;;792727;181;26451;-89
2023/11/13 05:10:22;;;;;;;8.40;7.10;;;8.40;97.80;;;;;;792836;181;26472;-87
2023/11/13 05:12:49;;;;;;;11.13;8.00;;;8.40;97.60;;;;;;792730;181;26485;-87
2023/11/13 05:15:16;;;;;;;12.00;8.30;;;8.40;97.70;;;;;;792617;177;26463;-87
2023/11/13 05:17:42;;;;;;;12.13;8.00;;;8.40;97.80;;;;;;792439;181;26482;-87
2023/11/13 05:20:09;;;;;;;13.83;7.50;;;8.40;97.60;;;;;;791846;181;26468;-88
2023/11/13 05:22:36;;;;;;;9.83;7.67;;;8.40;97.60;;;;;;791804;181;27008;-86
2023/11/13 05:25:03;;;;;;;10.37;8.00;;;8.40;97.70;;;;;;791680;178;26461;-87
2023/11/13 05:27:29;;;;;;;9.27;7.13;;;8.40;97.60;;;;;;791746;180;26476;-86
2023/11/13 05:29:56;;;;;;;9.20;7.00;;;8.40;97.60;;;;;;791902;180;26457;-86
2023/11/13 05:32:22;;;;;;;11.47;7.17;;;8.40;97.60;;;;;;791784;177;26461;-87
2023/11/13 05:34:49;;;;;;;11.97;7.33;;;8.40;97.60;;;;;;791804;181;26457;-87
2023/11/13 05:37:15;;;;;;;12.10;7.03;;;8.40;97.60;;;;;;791774;178;26457;-88
2023/11/13 05:39:42;;;;;;;10.07;7.77;;;8.50;97.70;;;;;;791404;177;28140;-89
2023/11/13 05:42:09;;;;;;;10.70;7.33;;;8.50;97.70;;;;;;791201;181;26452;-87
2023/11/13 05:44:36;;;;;;;9.73;6.83;;;8.50;97.70;;;;;;791314;181;26478;-86
2023/11/13 05:47:03;;;;;;;9.53;6.70;;;8.50;97.60;;;;;;791273;177;26454;-86
2023/11/13 05:49:30;;;;;;;10.17;7.20;;;8.50;97.50;;;;;;791148;177;26583;-87
2023/11/13 05:52:00;;;;;;;10.33;7.97;;;8.60;97.60;;;;;;781433;177;27025;-84
2023/11/13 05:54:30;;;;;;;9.63;7.33;;;8.50;97.70;;;;;;779075;184;26477;-82
2023/11/13 05:56:58;;;;;;;12.80;7.90;;;8.60;97.70;;;;;;777498;184;26500;-83
2023/11/13 05:59:32;;;;;;;10.17;7.10;;;8.60;98.20;;;;;;777384;184;26521;-83
2023/11/13 06:02:09;;;;;;;10.00;7.10;;;8.60;97.50;;;;;;777105;184;26507;-84
2023/11/13 06:04:52;;;;;;;10.43;8.10;;;8.60;97.70;;;;;;773063;184;26811;-85
2023/11/13 06:07:19;;;;;;;10.10;7.17;;;8.60;97.60;;;;;;778642;184;26474;-84
2023/11/13 06:09:48;;;;;;;9.83;7.07;;;8.60;97.60;;;;;;778551;180;27100;-83
2023/11/13 06:12:18;;;;;;;10.80;6.93;;;8.60;97.60;;;;;;778749;182;26511;-84
2023/11/13 06:14:48;;;;;;;11.03;7.13;;;8.60;97.60;;;;;;779348;184;27071;-84
2023/11/13 06:17:23;;;;;;;12.60;7.10;;;8.60;97.60;;;;;;773640;186;26603;-87
2023/11/13 06:19:51;;;;;;;8.47;6.80;;;8.60;97.60;;;;;;778058;184;26566;-84
2023/11/13 06:22:21;;;;;;;10.07;7.37;;;8.60;97.50;;;;;;762287;183;27096;-83
2023/11/13 06:24:51;;;;;;;9.70;7.33;;;8.60;97.60;;;;;;778990;184;26486;-84
2023/11/13 06:27:28;;;;;;;8.83;6.37;;;8.60;97.70;;;;;;777658;184;26526;-83
2023/11/13 06:29:59;;;;;;;8.97;7.03;;;8.60;97.70;;;;;;764173;188;27046;-84
2023/11/13 06:32:29;;;;;;;8.50;6.20;;;8.60;97.60;;;;;;764348;187;26533;-85
2023/11/13 06:34:57;;;;;;;13.23;7.73;;;8.60;97.80;;;;;;764516;187;26526;-86
2023/11/13 06:37:28;;;;;;;10.13;7.00;;;8.60;97.70;;;;;;764547;186;26537;-84
2023/11/13 06:39:56;;;;;;;8.37;5.67;;;8.70;97.80;;;;;;764513;186;26581;-85
2023/11/13 06:42:22;;;;;;;10.80;7.40;;;8.70;97.90;;;;;;763960;188;26586;-85
2023/11/13 06:44:53;;;;;;;8.87;6.40;;;8.80;98.10;;;;;;765255;188;26478;-86
2023/11/13 06:47:20;;;;;;;9.13;6.97;;;8.70;97.90;;;;;;764099;188;26497;-84
2023/11/13 06:49:52;;;;;;;8.80;6.33;;;8.80;98.00;;;;;;762606;187;26738;-85
2023/11/13 06:52:26;;;;;;;9.67;7.03;;;8.80;98.00;;;;;;776539;185;27010;-84
2023/11/13 06:54:58;;;;;;;10.97;6.97;;;8.80;98.10;;;;;;776560;185;27028;-85
2023/11/13 06:57:25;;;;;;;9.23;7.60;;;8.90;98.10;;;;;;776391;184;26513;-86
2023/11/13 06:59:50;;;;;;;16.17;7.97;;;8.80;98.10;;;;;;775840;185;26857;-88
2023/11/13 07:02:19;;;;;;;11.83;7.40;;;8.90;98.30;;;;;;762658;187;26522;-86
2023/11/13 07:04:46;;;;;;;8.63;6.80;;;8.90;98.90;;;;;;776275;184;27047;-85
2023/11/13 07:07:13;;;;;;;12.63;7.40;;;8.90;98.80;;;;;;771837;184;26619;-87
2023/11/13 07:09:45;;;;;;;11.20;7.73;;;8.90;98.80;;;;;;776955;184;26479;-87
2023/11/13 07:12:16;;;;;;;15.73;9.57;;;8.90;99.00;;;;;;772236;184;27041;-87
2023/11/13 07:14:51;;;;;;;8.37;7.00;;;8.90;99.10;;;;;;763949;185;27052;-87
2023/11/13 07:17:21;;;;;;;15.83;8.13;;;8.90;99.10;;;;;;778558;184;26474;-86
2023/11/13 07:19:50;;;;;;;14.47;7.07;;;9.00;99.30;;;;;;778504;185;26524;-89
2023/11/13 07:22:16;;;;;;;14.57;8.70;;;9.00;99.30;;;;;;778364;184;27033;-86
2023/11/13 07:24:59;;;;;;;;;;;;;;;;;;;;;
2023/11/13 07:27:26;;;;;;;13.53;7.10;;;9.10;99.60;;;;;;780386;182;26477;-88
2023/11/13 07:29:53;;;;;;;16.83;7.73;;;9.10;99.50;;;;;;779405;182;26483;-88
2023/11/13 07:32:25;;;;;;;15.60;8.37;;;9.00;99.50;;;;;;779708;184;26524;-87
2023/11/13 07:34:53;;;;;;;16.93;8.80;;;9.10;99.60;;;;;;774173;185;26484;-87
2023/11/13 07:37:26;;;;;;;17.20;7.70;;;9.10;99.70;;;;;;765255;188;27039;-87
2023/11/13 07:42:53;;;;;;;;;;;;;;;;;;;;;
2023/11/13 07:45:28;;;;;;;17.10;8.30;;;9.20;99.90;;;;;;791341;178;26979;-84
2023/11/13 07:48:00;;;;;;;13.40;6.90;;;9.20;99.90;;;;;;776608;184;26486;-85
2023/11/13 07:50:37;;;;;;;16.37;7.23;;;9.30;99.90;;;;;;791569;180;26524;-85
2023/11/13 07:55:48;;;;;;;13.77;7.40;;;9.30;99.90;;;;;;791754;175;26466;31
2023/11/13 07:58:15;;;;;;;12.47;7.60;;;9.40;99.90;;;;;;776188;184;27009;-92
2023/11/13 08:00:41;;;;;;;20.43;7.00;;;9.40;99.90;;;;;;774433;183;26530;-92
2023/11/13 08:03:22;;;;;;;;;;;;;;;;;;;;;
2023/11/13 08:05:51;;;;;;;26.00;8.33;;;9.40;99.90;;;;;;780658;184;26460;-91
2023/11/13 08:08:18;;;;;;;16.07;8.33;;;9.50;99.90;;;;;;765863;187;26576;-92
2023/11/13 08:10:51;;;;;;;16.53;8.53;;;9.50;99.90;;;;;;773738;184;26458;-92
2023/11/13 08:52:20;;;;;;;14.30;6.30;;;10.00;99.90;;;;;;745320;171;26440;-92
2023/11/13 08:57:41;;;;;;;12.07;5.03;;;10.00;99.90;;;;;;799668;180;26388;-91
2023/11/13 09:00:21;;;;;;;13.73;5.50;;;10.10;99.90;;;;;;796816;180;26415;-91
2023/11/13 09:03:06;;;;;;;9.90;4.97;;;10.10;99.90;;;;;;785165;183;26420;-91
2023/11/13 09:05:46;;;;;;;10.37;5.97;;;10.10;99.90;;;;;;785130;177;26513;-89
2023/11/13 09:17:12;;;;;;;11.07;5.40;;;10.10;99.90;;;;;;765272;184;26542;-89
2023/11/13 09:19:53;;;;;;;13.00;5.30;;;10.20;99.90;;;;;;767868;186;26510;-85
2023/11/13 09:22:21;;;;;;;10.50;4.70;;;10.20;99.90;;;;;;775912;178;26493;-86
2023/11/13 09:24:51;;;;;;;10.60;4.80;;;10.20;99.90;;;;;;793253;177;26466;-87
2023/11/13 09:27:18;;;;;;;14.17;5.53;;;10.20;99.90;;;;;;793294;177;26469;-88
2023/11/13 09:29:46;;;;;;;10.17;4.70;;;10.20;99.90;;;;;;793176;178;26478;-87
2023/11/13 09:32:19;;;;;;;8.87;4.90;;;10.30;99.90;;;;;;794167;177;26450;-87
2023/11/13 09:34:49;;;;;;;9.67;4.83;;;10.40;99.90;;;;;;793835;178;26499;-87
2023/11/13 09:37:27;;;;;;;14.83;7.03;;;10.30;99.90;;;;;;755669;180;26730;-87
2023/11/13 09:39:54;;;;;;;12.00;6.97;;;10.30;99.90;;;;;;760207;187;26501;-88
2023/11/13 09:42:23;;;;;;;13.50;6.83;;;10.40;99.90;;;;;;759955;185;26500;-88
2023/11/13 09:44:55;;;;;;;11.33;4.83;;;10.30;99.90;;;;;;759555;188;27112;-91
2023/11/13 09:47:35;;;;;;;11.87;5.43;;;10.30;99.90;;;;;;757324;188;26423;-89
2023/11/13 09:50:04;;;;;;;12.63;5.90;;;10.30;99.90;;;;;;761365;178;26551;-90
2023/11/13 09:52:30;;;;;;;12.23;4.60;;;10.40;99.90;;;;;;780879;184;26499;-90
2023/11/13 09:54:56;;;;;;;12.30;4.80;;;10.40;99.90;;;;;;778126;184;26813;-90
2023/11/13 09:57:23;;;;;;;12.77;5.50;;;10.40;99.90;;;;;;769549;186;26550;-90
2023/11/13 09:59:51;;;;;;;9.90;3.60;;;10.40;99.90;;;;;;780451;184;26481;-90
2023/11/13 10:02:17;;;;;;;8.47;5.50;;;10.50;99.90;;;;;;782178;183;26480;-90
2023/11/13 10:04:43;;;;;;;14.57;8.83;;;10.50;99.90;;;;;;782125;183;26525;-90
2023/11/13 10:07:09;;;;;;;10.67;5.47;;;10.60;99.90;;;;;;781479;184;26472;-89
2023/11/13 10:09:36;;;;;;;8.80;4.47;;;10.60;99.90;;;;;;782146;184;26579;-90
2023/11/13 10:12:02;;;;;;;10.20;5.07;;;10.60;99.90;;;;;;781465;184;26489;-90
2023/11/13 10:14:42;;;;;;;8.53;4.03;;;10.60;99.90;;;;;;781722;181;27053;-89
2023/11/13 10:17:08;;;;;;;10.17;3.70;;;10.70;99.90;;;;;;780780;184;26500;-90
2023/11/13 10:19:35;;;;;;;8.83;3.77;;;10.70;99.90;;;;;;781312;184;26484;-89
2023/11/13 10:22:03;;;;;;;6.60;3.33;;;10.70;99.90;;;;;;781667;184;26500;-90
2023/11/13 10:24:29;;;;;;;8.33;3.87;;;10.70;99.80;;;;;;781617;184;26531;-90
2023/11/13 10:26:56;;;;;;;8.37;3.53;;;10.80;99.90;;;;;;781359;183;26487;-89
2023/11/13 10:29:27;;;;;;;5.93;2.80;;;10.80;99.90;;;;;;781910;184;27035;-90
2023/11/13 10:31:52;;;;;;;11.40;3.30;;;10.80;99.40;;;;;;782521;181;26520;-90
2023/11/13 10:34:20;;;;;;;8.10;3.67;;;10.90;99.30;;;;;;782335;184;26492;-90
2023/11/13 10:36:56;;;;;;;5.40;3.00;;;10.90;99.50;;;;;;781157;183;26519;-89
2023/11/13 10:39:41;;;;;;;5.93;2.80;;;11.00;99.40;;;;;;779832;184;26769;-90
2023/11/13 10:42:05;;;;;;;7.87;2.63;;;11.00;99.40;;;;;;779986;183;26488;-90
2023/11/13 10:44:32;;;;;;;6.20;2.60;;;11.00;98.80;;;;;;780348;181;27079;-90
2023/11/13 10:46:58;;;;;;;5.23;2.67;;;11.00;98.40;;;;;;780261;184;26483;-89
2023/11/13 10:49:25;;;;;;;5.03;2.80;;;11.10;98.50;;;;;;782232;181;26476;-88
2023/11/13 10:51:54;;;;;;;4.97;3.10;;;11.10;98.70;;;;;;780950;184;26496;-90
2023/11/13 10:54:20;;;;;;;7.97;3.50;;;11.10;98.50;;;;;;780733;184;26513;-89
2023/11/13 10:56:47;;;;;;;6.17;3.10;;;11.20;98.80;;;;;;780554;181;27030;-89
2023/11/13 10:59:12;;;;;;;3.70;2.60;;;11.20;98.60;;;;;;781820;181;26487;-90
2023/11/13 11:01:39;;;;;;;4.83;2.80;;;11.20;98.20;;;;;;785136;180;26499;-90
2023/11/13 11:04:05;;;;;;;5.17;2.70;;;11.20;98.10;;;;;;784581;180;26508;-91
2023/11/13 11:06:32;;;;;;;6.97;3.00;;;11.20;98.00;;;;;;783655;181;26539;-89
2023/11/13 11:08:59;;;;;;;5.87;3.00;;;11.30;98.00;;;;;;782307;183;27095;-90
2023/11/13 11:11:26;;;;;;;4.13;2.80;;;11.30;98.10;;;;;;782450;183;26487;-89
2023/11/13 11:13:53;;;;;;;5.03;3.10;;;11.40;98.00;;;;;;783231;183;27047;-90
2023/11/13 11:16:29;;;;;;;9.77;3.30;;;11.40;98.10;;;;;;781802;184;26505;-89
2023/11/13 11:19:09;;;;;;;5.37;2.70;;;11.40;98.10;;;;;;781454;184;27019;-89
2023/11/13 11:21:39;;;;;;;5.27;3.00;;;11.40;98.00;;;;;;781384;183;27059;-89
2023/11/13 11:24:07;;;;;;;7.87;2.80;;;11.40;98.20;;;;;;781079;183;26516;-89
2023/11/13 11:26:46;;;;;;;6.37;3.00;;;11.50;97.90;;;;;;781177;183;26585;-89
2023/11/13 11:29:12;;;;;;;6.50;2.83;;;11.50;98.00;;;;;;781344;184;26496;-89
2023/11/13 11:31:47;;;;;;;4.90;3.10;;;11.50;98.00;;;;;;771404;183;26523;-88
2023/11/13 11:34:12;;;;;;;5.10;2.80;;;11.50;97.90;;;;;;768330;184;26484;-89
2023/11/13 11:36:40;;;;;;;5.67;3.23;;;11.50;97.80;;;;;;767167;185;26563;-88
2023/11/13 11:39:13;;;;;;;6.03;2.90;;;11.50;97.90;;;;;;767843;184;26481;-88
2023/11/13 11:41:42;;;;;;;4.77;2.83;;;11.50;97.80;;;;;;767946;184;26505;-88
2023/11/13 11:44:11;;;;;;;6.00;2.97;;;11.50;97.90;;;;;;768502;187;26499;-88
2023/11/13 11:46:47;;;;;;;5.03;3.17;;;11.50;97.90;;;;;;767804;184;26501;-90
2023/11/13 11:49:25;;;;;;;5.43;3.00;;;11.60;98.10;;;;;;768253;187;26496;-89
2023/11/13 11:51:53;;;;;;;5.67;3.00;;;11.60;97.80;;;;;;768096;187;27102;-90
2023/11/13 11:54:21;;;;;;;4.27;2.23;;;11.60;97.80;;;;;;767931;185;26522;-89
2023/11/13 11:56:56;;;;;;;5.13;2.57;;;11.70;97.80;;;;;;767749;184;26510;-87
2023/11/13 11:59:24;;;;;;;4.87;2.63;;;11.70;97.80;;;;;;767991;187;26496;-88
2023/11/13 12:01:50;;;;;;;4.07;2.70;;;11.70;97.50;;;;;;767860;187;26512;-89
2023/11/13 12:04:16;;;;;;;4.73;2.80;;;11.70;97.90;;;;;;767919;187;26513;-88
2023/11/13 12:06:48;;;;;;;7.23;2.80;;;11.70;97.70;;;;;;767931;187;26510;-88
2023/11/13 12:09:10;;;;;;;5.63;3.57;;;11.70;97.90;;;;;;767301;184;26484;-87
2023/11/13 12:11:36;;;;;;;22.90;13.60;;;11.80;98.00;;;;;;769865;185;26539;-87
2023/11/13 12:14:03;;;;;;;17.33;10.60;;;11.80;98.00;;;;;;769841;183;26576;-87
2023/11/13 12:16:29;;;;;;;23.73;14.23;;;11.80;98.10;;;;;;769350;184;26560;-88
2023/11/13 12:18:56;;;;;;;10.50;4.67;;;11.80;98.00;;;;;;769448;187;26480;-88
2023/11/13 12:21:23;;;;;;;8.07;3.77;;;11.80;97.70;;;;;;768781;187;26530;-87
2023/11/13 12:23:52;;;;;;;4.30;3.27;;;11.80;98.00;;;;;;768920;183;26522;-90
2023/11/13 12:26:16;;;;;;;5.87;3.20;;;11.90;98.10;;;;;;768452;185;26544;-92
2023/11/13 12:28:47;;;;;;;8.90;3.33;;;11.90;98.20;;;;;;771068;178;26513;-94
2023/11/13 12:31:17;;;;;;;7.47;3.57;;;11.90;98.20;;;;;;770912;178;26520;-92
2023/11/13 12:33:58;;;;;;;8.03;3.50;;;11.90;98.40;;;;;;770968;182;26509;-94
2023/11/13 12:47:33;;;;;;;5.60;3.80;;;12.00;99.20;;;;;;739914;176;26500;-89
2023/11/13 12:52:44;;;;;;;7.17;4.40;;;12.10;99.30;;;;;;792913;181;26484;-89
2023/11/13 12:55:28;;;;;;;19.47;11.33;;;12.10;99.20;;;;;;791567;181;26424;-89
2023/11/13 13:03:23;;;;;;;10.70;7.03;;;12.10;99.10;;;;;;771824;184;26507;-91
2023/11/13 13:05:53;;;;;;;17.30;9.10;;;12.20;99.30;;;;;;772068;186;26492;-92
2023/11/13 13:08:18;;;;;;;17.43;10.67;;;12.20;99.30;;;;;;771763;185;26511;-92
2023/11/13 13:10:47;;;;;;;11.33;7.10;;;12.30;99.50;;;;;;758512;186;26513;-91
2023/11/13 13:13:12;;;;;;;9.67;5.90;;;12.30;99.40;;;;;;771101;182;26596;-92
2023/11/13 13:15:39;;;;;;;11.30;5.07;;;12.40;99.50;;;;;;771062;182;26537;-92
2023/11/13 13:18:07;;;;;;;8.63;4.47;;;12.40;99.40;;;;;;769778;186;26553;-92
2023/11/13 13:20:33;;;;;;;13.20;4.80;;;12.50;99.40;;;;;;769778;183;26486;-92
2023/11/13 13:23:01;;;;;;;10.63;5.03;;;12.50;99.50;;;;;;771629;183;26506;-93
2023/11/13 13:25:30;;;;;;;7.03;4.83;;;12.50;99.40;;;;;;771670;182;26568;-92
2023/11/13 13:27:58;;;;;;;7.37;4.13;;;12.50;99.30;;;;;;770742;182;26514;-92
2023/11/13 13:30:31;;;;;;;7.87;4.13;;;12.50;99.30;;;;;;771474;182;26564;-92
2023/11/13 13:52:29;;;;;;;4.90;4.00;;;12.70;99.60;;;;;;741010;177;27247;-90
2023/11/13 13:54:58;;;;;;;10.63;4.07;;;12.70;99.80;;;;;;794314;179;26423;-91
2023/11/13 13:57:22;;;;;;;7.53;4.30;;;12.70;99.90;;;;;;793973;179;27006;-91
2023/11/13 13:59:59;;;;;;;7.27;3.80;;;12.70;99.90;;;;;;793866;178;26481;-90
2023/11/13 14:02:59;;;;;;;8.27;4.03;;;12.80;99.90;;;;;;792394;178;26452;-87
2023/11/13 14:05:42;;;;;;;;;;;;;;;;;;;;;
2023/11/13 14:08:14;;;;;;;4.93;3.67;;;12.80;99.90;;;;;;776231;176;26510;-90
2023/11/13 14:10:35;;;;;;;6.03;4.00;;;12.80;99.90;;;;;;775967;185;26481;-91
2023/11/13 14:13:05;;;;;;;8.00;4.80;;;12.80;99.90;;;;;;776390;183;26518;-91
2023/11/13 14:15:35;;;;;;;6.97;4.27;;;12.90;99.90;;;;;;776411;184;26455;-92
2023/11/13 14:18:11;;;;;;;9.60;5.07;;;12.90;99.90;;;;;;775673;184;26472;-92
2023/11/13 14:20:51;;;;;;;7.90;4.47;;;12.90;99.90;;;;;;775335;184;26447;-93
2023/11/13 14:23:42;;;;;;;6.67;4.80;;;12.90;99.90;;;;;;775672;185;26444;-91
2023/11/13 14:26:20;;;;;;;8.93;5.23;;;13.00;99.90;;;;;;775631;185;26439;-92
2023/11/13 14:31:46;;;;;;;7.90;4.67;;;13.10;99.90;;;;;;767977;186;26480;-92
2023/11/13 14:34:33;;;;;;;7.83;5.10;;;13.10;99.90;;;;;;777044;182;26585;-92
2023/11/13 14:48:13;;;;;;;6.93;4.23;;;13.50;99.90;;;;;;722592;175;26517;-91
2023/11/13 14:50:58;;;;;;;;;;;;;;;;;;;;;